aviador You're here:

WBGS Decoded Metar

SIBU in MALAYSIA
Report Time2017-06-24 17:00:00
UTC Time2017-06-24 17:22:16
Flight Rules vfr VFR
Wind090° at 03 kt
W.Decomp.*RWY 13: 2.3 kt HW 2 kt LCW
W.Rank090° ranks 27
Current wind is above 090° avg. (2.7)
Visibility9999 m
Phenomena:N/A
Clouds:Few 018 Hf
Broken 150 Hf
Ceiling15,000 ft
Temp24°C (ISA +9)
Dew Point24°C (100% RH)
QNH1009 hPa
Density Alt1,601 ft
Elevation26 ft
Report Wrong Elevation
Raw Report
METAR WBGS 241700Z 09003KT 9999 FEW018 BKN150 24/24 Q1009=

Extra information for WBGS:More info

Metar Taf Metar & Taf Last 4 Metars F.Rules Stats Wind Profile Meteogram Temp Stats Airport Information Weather charts Add Link Nearby VenuesMetar ALERT Operation Metar Decoded Social comments